sensor_id;sensor_type;location;lat;lon;timestamp;temperature;humidity
68701;DHT22;55682;51.114;5.882;2023-04-06T00:01:31;6.01;63.18
68701;DHT22;55682;51.114;5.882;2023-04-06T00:03:57;6.12;62.18
68701;DHT22;55682;51.114;5.882;2023-04-06T00:06:22;6.11;61.99
68701;DHT22;55682;51.114;5.882;2023-04-06T00:08:48;6.10;61.89
68701;DHT22;55682;51.114;5.882;2023-04-06T00:11:14;6.13;61.74
68701;DHT22;55682;51.114;5.882;2023-04-06T00:13:39;6.16;61.74
68701;DHT22;55682;51.114;5.882;2023-04-06T00:16:05;6.16;61.71
68701;DHT22;55682;51.114;5.882;2023-04-06T00:18:32;6.17;61.54
68701;DHT22;55682;51.114;5.882;2023-04-06T00:20:57;6.10;61.63
68701;DHT22;55682;51.114;5.882;2023-04-06T00:23:23;6.06;62.15
68701;DHT22;55682;51.114;5.882;2023-04-06T00:25:48;6.08;62.43
68701;DHT22;55682;51.114;5.882;2023-04-06T00:28:14;6.09;62.38
68701;DHT22;55682;51.114;5.882;2023-04-06T00:30:41;6.11;62.50
68701;DHT22;55682;51.114;5.882;2023-04-06T00:33:06;6.10;62.41
68701;DHT22;55682;51.114;5.882;2023-04-06T00:35:32;6.02;62.56
68701;DHT22;55682;51.114;5.882;2023-04-06T00:37:58;5.98;62.59
68701;DHT22;55682;51.114;5.882;2023-04-06T00:40:24;5.93;63.20
68701;DHT22;55682;51.114;5.882;2023-04-06T00:42:49;5.94;63.30
68701;DHT22;55682;51.114;5.882;2023-04-06T00:45:15;5.84;63.54
68701;DHT22;55682;51.114;5.882;2023-04-06T00:47:41;5.78;63.69
68701;DHT22;55682;51.114;5.882;2023-04-06T00:50:07;5.69;63.89
68701;DHT22;55682;51.114;5.882;2023-04-06T00:52:34;5.57;64.44
68701;DHT22;55682;51.114;5.882;2023-04-06T00:55:02;5.46;65.21
68701;DHT22;55682;51.114;5.882;2023-04-06T00:57:28;5.36;65.68
68701;DHT22;55682;51.114;5.882;2023-04-06T00:59:56;5.20;66.43
68701;DHT22;55682;51.114;5.882;2023-04-06T01:02:23;5.06;66.99
68701;DHT22;55682;51.114;5.882;2023-04-06T01:04:52;4.97;67.41
68701;DHT22;55682;51.114;5.882;2023-04-06T01:07:42;4.89;67.77
68701;DHT22;55682;51.114;5.882;2023-04-06T01:10:25;4.81;67.91
68701;DHT22;55682;51.114;5.882;2023-04-06T01:12:54;4.73;68.20
68701;DHT22;55682;51.114;5.882;2023-04-06T01:15:38;4.68;68.28
68701;DHT22;55682;51.114;5.882;2023-04-06T01:18:08;4.61;68.52
68701;DHT22;55682;51.114;5.882;2023-04-06T01:20:37;4.60;69.02
68701;DHT22;55682;51.114;5.882;2023-04-06T01:23:03;4.61;68.77
68701;DHT22;55682;51.114;5.882;2023-04-06T01:25:29;4.59;68.49
68701;DHT22;55682;51.114;5.882;2023-04-06T01:28:07;4.58;68.46
68701;DHT22;55682;51.114;5.882;2023-04-06T01:30:58;4.56;68.71
68701;DHT22;55682;51.114;5.882;2023-04-06T01:33:38;4.61;69.06
68701;DHT22;55682;51.114;5.882;2023-04-06T01:36:07;4.69;68.67
68701;DHT22;55682;51.114;5.882;2023-04-06T01:38:34;4.80;68.36
68701;DHT22;55682;51.114;5.882;2023-04-06T01:41:00;4.84;67.90
68701;DHT22;55682;51.114;5.882;2023-04-06T01:43:31;4.81;67.70
68701;DHT22;55682;51.114;5.882;2023-04-06T01:46:04;4.74;67.67
68701;DHT22;55682;51.114;5.882;2023-04-06T01:48:33;4.58;68.49
68701;DHT22;55682;51.114;5.882;2023-04-06T01:51:04;4.43;69.33
68701;DHT22;55682;51.114;5.882;2023-04-06T01:53:34;4.42;69.68
68701;DHT22;55682;51.114;5.882;2023-04-06T01:56:04;4.43;69.44
68701;DHT22;55682;51.114;5.882;2023-04-06T01:58:37;4.44;69.74
68701;DHT22;55682;51.114;5.882;2023-04-06T02:01:03;4.46;69.36
68701;DHT22;55682;51.114;5.882;2023-04-06T02:03:37;4.46;69.42
68701;DHT22;55682;51.114;5.882;2023-04-06T02:06:07;4.48;69.32
68701;DHT22;55682;51.114;5.882;2023-04-06T02:08:37;4.50;69.18
68701;DHT22;55682;51.114;5.882;2023-04-06T02:11:02;4.48;69.34
68701;DHT22;55682;51.114;5.882;2023-04-06T02:13:33;4.44;69.62
68701;DHT22;55682;51.114;5.882;2023-04-06T02:15:59;4.44;69.66
68701;DHT22;55682;51.114;5.882;2023-04-06T02:18:26;4.41;69.64
68701;DHT22;55682;51.114;5.882;2023-04-06T02:20:51;4.39;69.70
68701;DHT22;55682;51.114;5.882;2023-04-06T02:23:17;4.41;69.63
68701;DHT22;55682;51.114;5.882;2023-04-06T02:25:43;4.41;69.59
68701;DHT22;55682;51.114;5.882;2023-04-06T02:28:09;4.41;69.49
68701;DHT22;55682;51.114;5.882;2023-04-06T02:30:34;4.35;69.70
68701;DHT22;55682;51.114;5.882;2023-04-06T02:33:00;4.24;70.00
68701;DHT22;55682;51.114;5.882;2023-04-06T02:35:30;4.20;70.31
68701;DHT22;55682;51.114;5.882;2023-04-06T02:37:56;4.15;70.26
68701;DHT22;55682;51.114;5.882;2023-04-06T02:40:23;3.98;70.80
68701;DHT22;55682;51.114;5.882;2023-04-06T02:42:48;3.86;71.70
68701;DHT22;55682;51.114;5.882;2023-04-06T02:45:17;3.83;72.03
68701;DHT22;55682;51.114;5.882;2023-04-06T02:47:46;3.90;71.81
68701;DHT22;55682;51.114;5.882;2023-04-06T02:50:14;3.93;71.70
68701;DHT22;55682;51.114;5.882;2023-04-06T02:52:47;3.99;71.88
68701;DHT22;55682;51.114;5.882;2023-04-06T02:55:13;4.07;71.64
68701;DHT22;55682;51.114;5.882;2023-04-06T02:57:38;4.14;71.38
68701;DHT22;55682;51.114;5.882;2023-04-06T03:00:05;4.15;71.22
68701;DHT22;55682;51.114;5.882;2023-04-06T03:02:37;4.13;71.27
68701;DHT22;55682;51.114;5.882;2023-04-06T03:05:07;4.08;71.46
68701;DHT22;55682;51.114;5.882;2023-04-06T03:07:37;4.09;71.59
68701;DHT22;55682;51.114;5.882;2023-04-06T03:10:03;4.17;71.23
68701;DHT22;55682;51.114;5.882;2023-04-06T03:12:30;4.19;71.14
68701;DHT22;55682;51.114;5.882;2023-04-06T03:15:25;4.27;70.54
68701;DHT22;55682;51.114;5.882;2023-04-06T03:17:57;4.32;70.32
68701;DHT22;55682;51.114;5.882;2023-04-06T03:20:37;4.33;70.20
68701;DHT22;55682;51.114;5.882;2023-04-06T03:23:03;4.35;69.72
68701;DHT22;55682;51.114;5.882;2023-04-06T03:25:33;4.41;69.18
68701;DHT22;55682;51.114;5.882;2023-04-06T03:28:03;4.42;69.01
68701;DHT22;55682;51.114;5.882;2023-04-06T03:30:30;4.39;69.19
68701;DHT22;55682;51.114;5.882;2023-04-06T03:32:56;4.33;69.71
68701;DHT22;55682;51.114;5.882;2023-04-06T03:35:25;4.31;70.06
68701;DHT22;55682;51.114;5.882;2023-04-06T03:37:50;4.27;70.51
68701;DHT22;55682;51.114;5.882;2023-04-06T03:40:16;4.30;70.79
68701;DHT22;55682;51.114;5.882;2023-04-06T03:42:42;4.35;70.80
68701;DHT22;55682;51.114;5.882;2023-04-06T03:45:12;4.36;70.79
68701;DHT22;55682;51.114;5.882;2023-04-06T03:47:46;4.34;71.04
68701;DHT22;55682;51.114;5.882;2023-04-06T03:50:11;4.35;71.05
68701;DHT22;55682;51.114;5.882;2023-04-06T03:52:37;4.38;71.09
68701;DHT22;55682;51.114;5.882;2023-04-06T03:55:03;4.43;70.77
68701;DHT22;55682;51.114;5.882;2023-04-06T03:57:29;4.50;70.21
68701;DHT22;55682;51.114;5.882;2023-04-06T03:59:57;4.53;69.84
68701;DHT22;55682;51.114;5.882;2023-04-06T04:02:25;4.57;69.64
68701;DHT22;55682;51.114;5.882;2023-04-06T04:04:51;4.54;69.71
68701;DHT22;55682;51.114;5.882;2023-04-06T04:07:17;4.48;70.23
68701;DHT22;55682;51.114;5.882;2023-04-06T04:09:43;4.49;70.49
68701;DHT22;55682;51.114;5.882;2023-04-06T04:12:08;4.53;70.32
68701;DHT22;55682;51.114;5.882;2023-04-06T04:14:34;4.58;69.75
68701;DHT22;55682;51.114;5.882;2023-04-06T04:17:00;4.67;69.29
68701;DHT22;55682;51.114;5.882;2023-04-06T04:19:26;4.73;69.13
68701;DHT22;55682;51.114;5.882;2023-04-06T04:21:51;4.75;69.00
68701;DHT22;55682;51.114;5.882;2023-04-06T04:24:24;4.73;69.33
68701;DHT22;55682;51.114;5.882;2023-04-06T04:26:50;4.80;69.14
68701;DHT22;55682;51.114;5.882;2023-04-06T04:29:16;4.84;68.87
68701;DHT22;55682;51.114;5.882;2023-04-06T04:31:42;4.89;68.76
68701;DHT22;55682;51.114;5.882;2023-04-06T04:34:14;4.80;69.10
68701;DHT22;55682;51.114;5.882;2023-04-06T04:36:40;4.65;69.87
68701;DHT22;55682;51.114;5.882;2023-04-06T04:39:09;4.49;70.56
68701;DHT22;55682;51.114;5.882;2023-04-06T04:41:40;4.45;70.90
68701;DHT22;55682;51.114;5.882;2023-04-06T04:44:08;4.49;70.62
68701;DHT22;55682;51.114;5.882;2023-04-06T04:46:34;4.50;70.31
68701;DHT22;55682;51.114;5.882;2023-04-06T04:49:01;4.57;70.03
68701;DHT22;55682;51.114;5.882;2023-04-06T04:51:27;4.64;69.90
68701;DHT22;55682;51.114;5.882;2023-04-06T04:54:03;4.72;69.58
68701;DHT22;55682;51.114;5.882;2023-04-06T04:56:31;4.77;69.38
68701;DHT22;55682;51.114;5.882;2023-04-06T04:59:06;4.83;69.04
68701;DHT22;55682;51.114;5.882;2023-04-06T05:01:36;4.93;68.79
68701;DHT22;55682;51.114;5.882;2023-04-06T05:04:02;4.90;68.91
68701;DHT22;55682;51.114;5.882;2023-04-06T05:06:28;4.91;68.93
68701;DHT22;55682;51.114;5.882;2023-04-06T05:08:54;4.95;68.92
68701;DHT22;55682;51.114;5.882;2023-04-06T05:11:20;5.00;69.00
68701;DHT22;55682;51.114;5.882;2023-04-06T05:13:53;5.02;69.56
68701;DHT22;55682;51.114;5.882;2023-04-06T05:16:22;5.08;69.04
68701;DHT22;55682;51.114;5.882;2023-04-06T05:18:49;5.31;68.91
68701;DHT22;55682;51.114;5.882;2023-04-06T05:21:15;5.65;68.09
68701;DHT22;55682;51.114;5.882;2023-04-06T05:23:54;6.05;66.94
68701;DHT22;55682;51.114;5.882;2023-04-06T05:26:20;6.48;65.08
68701;DHT22;55682;51.114;5.882;2023-04-06T05:28:47;6.83;63.63
68701;DHT22;55682;51.114;5.882;2023-04-06T05:31:15;6.98;62.27
68701;DHT22;55682;51.114;5.882;2023-04-06T05:33:46;6.99;61.98
68701;DHT22;55682;51.114;5.882;2023-04-06T05:36:14;6.96;61.49
68701;DHT22;55682;51.114;5.882;2023-04-06T05:38:42;6.79;61.41
68701;DHT22;55682;51.114;5.882;2023-04-06T05:41:18;6.59;62.15
68701;DHT22;55682;51.114;5.882;2023-04-06T05:43:44;6.48;62.83
68701;DHT22;55682;51.114;5.882;2023-04-06T05:46:10;6.41;63.19
68701;DHT22;55682;51.114;5.882;2023-04-06T05:48:36;6.38;63.31
68701;DHT22;55682;51.114;5.882;2023-04-06T05:51:02;6.31;63.66
68701;DHT22;55682;51.114;5.882;2023-04-06T05:53:38;6.31;64.08
68701;DHT22;55682;51.114;5.882;2023-04-06T05:56:04;6.37;64.18
68701;DHT22;55682;51.114;5.882;2023-04-06T05:58:30;6.43;63.81
68701;DHT22;55682;51.114;5.882;2023-04-06T06:01:00;6.43;63.70
68701;DHT22;55682;51.114;5.882;2023-04-06T06:03:33;6.46;63.53
68701;DHT22;55682;51.114;5.882;2023-04-06T06:06:00;6.56;63.55
68701;DHT22;55682;51.114;5.882;2023-04-06T06:08:32;6.65;63.55
68701;DHT22;55682;51.114;5.882;2023-04-06T06:11:02;6.71;62.94
68701;DHT22;55682;51.114;5.882;2023-04-06T06:13:27;6.75;62.55
68701;DHT22;55682;51.114;5.882;2023-04-06T06:15:54;6.78;62.44
68701;DHT22;55682;51.114;5.882;2023-04-06T06:18:21;6.84;62.34
68701;DHT22;55682;51.114;5.882;2023-04-06T06:20:50;6.93;62.36
68701;DHT22;55682;51.114;5.882;2023-04-06T06:23:16;7.03;62.14
68701;DHT22;55682;51.114;5.882;2023-04-06T06:25:41;7.12;62.41
68701;DHT22;55682;51.114;5.882;2023-04-06T06:28:07;7.19;62.12
68701;DHT22;55682;51.114;5.882;2023-04-06T06:30:34;7.33;61.90
68701;DHT22;55682;51.114;5.882;2023-04-06T06:33:00;7.47;61.79
68701;DHT22;55682;51.114;5.882;2023-04-06T06:35:27;7.58;61.39
68701;DHT22;55682;51.114;5.882;2023-04-06T06:37:52;7.65;61.24
68701;DHT22;55682;51.114;5.882;2023-04-06T06:40:21;7.68;61.25
68701;DHT22;55682;51.114;5.882;2023-04-06T06:42:49;7.77;61.34
68701;DHT22;55682;51.114;5.882;2023-04-06T06:45:35;7.91;61.05
68701;DHT22;55682;51.114;5.882;2023-04-06T06:48:01;7.99;61.09
68701;DHT22;55682;51.114;5.882;2023-04-06T06:50:26;8.16;60.81
68701;DHT22;55682;51.114;5.882;2023-04-06T06:52:52;8.27;60.47
68701;DHT22;55682;51.114;5.882;2023-04-06T06:55:18;8.31;60.13
68701;DHT22;55682;51.114;5.882;2023-04-06T06:57:45;8.37;60.16
68701;DHT22;55682;51.114;5.882;2023-04-06T07:00:13;8.51;59.65
68701;DHT22;55682;51.114;5.882;2023-04-06T07:02:40;8.67;59.03
68701;DHT22;55682;51.114;5.882;2023-04-06T07:05:06;8.77;58.67
68701;DHT22;55682;51.114;5.882;2023-04-06T07:07:32;8.86;58.16
68701;DHT22;55682;51.114;5.882;2023-04-06T07:10:01;8.90;58.22
68701;DHT22;55682;51.114;5.882;2023-04-06T07:12:27;8.98;58.33
68701;DHT22;55682;51.114;5.882;2023-04-06T07:14:52;9.09;57.95
68701;DHT22;55682;51.114;5.882;2023-04-06T07:17:18;9.25;57.91
68701;DHT22;55682;51.114;5.882;2023-04-06T07:19:44;9.36;57.90
68701;DHT22;55682;51.114;5.882;2023-04-06T07:22:11;9.46;57.67
68701;DHT22;55682;51.114;5.882;2023-04-06T07:24:36;9.57;57.55
68701;DHT22;55682;51.114;5.882;2023-04-06T07:27:02;9.59;56.77
68701;DHT22;55682;51.114;5.882;2023-04-06T07:29:28;9.62;56.03
68701;DHT22;55682;51.114;5.882;2023-04-06T07:31:54;9.61;55.66
68701;DHT22;55682;51.114;5.882;2023-04-06T07:34:21;9.61;55.55
68701;DHT22;55682;51.114;5.882;2023-04-06T07:36:48;9.66;55.49
68701;DHT22;55682;51.114;5.882;2023-04-06T07:39:14;9.67;55.11
68701;DHT22;55682;51.114;5.882;2023-04-06T07:41:40;9.68;54.88
68701;DHT22;55682;51.114;5.882;2023-04-06T07:44:06;9.74;54.91
68701;DHT22;55682;51.114;5.882;2023-04-06T07:46:32;9.81;54.74
68701;DHT22;55682;51.114;5.882;2023-04-06T07:48:59;9.86;54.62
68701;DHT22;55682;51.114;5.882;2023-04-06T07:51:28;9.95;54.75
68701;DHT22;55682;51.114;5.882;2023-04-06T07:53:54;10.05;55.01
68701;DHT22;55682;51.114;5.882;2023-04-06T07:56:20;10.20;54.89
68701;DHT22;55682;51.114;5.882;2023-04-06T07:58:46;10.29;54.47
68701;DHT22;55682;51.114;5.882;2023-04-06T08:01:12;10.41;54.05
68701;DHT22;55682;51.114;5.882;2023-04-06T08:03:39;10.45;53.67
68701;DHT22;55682;51.114;5.882;2023-04-06T08:06:05;10.49;53.37
68701;DHT22;55682;51.114;5.882;2023-04-06T08:08:31;10.53;53.21
68701;DHT22;55682;51.114;5.882;2023-04-06T08:10:56;10.64;53.43
68701;DHT22;55682;51.114;5.882;2023-04-06T08:13:22;10.78;53.37
68701;DHT22;55682;51.114;5.882;2023-04-06T08:15:48;10.89;53.01
68701;DHT22;55682;51.114;5.882;2023-04-06T08:18:13;11.03;52.85
68701;DHT22;55682;51.114;5.882;2023-04-06T08:20:39;11.16;52.60
68701;DHT22;55682;51.114;5.882;2023-04-06T08:23:05;11.32;52.47
68701;DHT22;55682;51.114;5.882;2023-04-06T08:25:34;11.56;51.76
68701;DHT22;55682;51.114;5.882;2023-04-06T08:28:01;11.62;51.30
68701;DHT22;55682;51.114;5.882;2023-04-06T08:30:26;11.63;51.72
68701;DHT22;55682;51.114;5.882;2023-04-06T08:32:52;11.75;51.69
68701;DHT22;55682;51.114;5.882;2023-04-06T08:35:17;11.94;51.43
68701;DHT22;55682;51.114;5.882;2023-04-06T08:37:43;12.12;50.64
68701;DHT22;55682;51.114;5.882;2023-04-06T08:40:09;12.20;50.34
68701;DHT22;55682;51.114;5.882;2023-04-06T08:42:40;12.38;49.92
68701;DHT22;55682;51.114;5.882;2023-04-06T08:45:08;12.49;49.43
68701;DHT22;55682;51.114;5.882;2023-04-06T08:47:36;12.71;48.47
68701;DHT22;55682;51.114;5.882;2023-04-06T08:50:04;12.74;48.17
68701;DHT22;55682;51.114;5.882;2023-04-06T08:52:32;12.87;47.89
68701;DHT22;55682;51.114;5.882;2023-04-06T08:54:59;13.04;46.91
68701;DHT22;55682;51.114;5.882;2023-04-06T08:57:26;13.08;45.66
68701;DHT22;55682;51.114;5.882;2023-04-06T08:59:52;13.04;46.49
68701;DHT22;55682;51.114;5.882;2023-04-06T09:02:20;13.15;45.70
68701;DHT22;55682;51.114;5.882;2023-04-06T09:04:48;13.08;46.06
68701;DHT22;55682;51.114;5.882;2023-04-06T09:07:15;13.16;46.26
68701;DHT22;55682;51.114;5.882;2023-04-06T09:09:41;13.27;46.15
68701;DHT22;55682;51.114;5.882;2023-04-06T09:12:42;13.23;45.64
68701;DHT22;55682;51.114;5.882;2023-04-06T09:15:18;13.16;46.05
68701;DHT22;55682;51.114;5.882;2023-04-06T09:17:44;13.07;46.30
68701;DHT22;55682;51.114;5.882;2023-04-06T09:20:12;13.09;46.31
68701;DHT22;55682;51.114;5.882;2023-04-06T09:22:38;13.07;46.57
68701;DHT22;55682;51.114;5.882;2023-04-06T09:25:05;13.11;46.20
68701;DHT22;55682;51.114;5.882;2023-04-06T09:27:33;13.06;46.71
68701;DHT22;55682;51.114;5.882;2023-04-06T09:30:10;13.16;46.33
68701;DHT22;55682;51.114;5.882;2023-04-06T09:32:50;13.15;45.80
68701;DHT22;55682;51.114;5.882;2023-04-06T09:35:17;13.05;46.60
68701;DHT22;55682;51.114;5.882;2023-04-06T09:37:50;13.06;46.59
68701;DHT22;55682;51.114;5.882;2023-04-06T09:40:16;13.01;46.02
68701;DHT22;55682;51.114;5.882;2023-04-06T09:42:46;13.09;46.28
68701;DHT22;55682;51.114;5.882;2023-04-06T09:45:12;13.10;46.19
68701;DHT22;55682;51.114;5.882;2023-04-06T09:47:43;13.25;45.71
68701;DHT22;55682;51.114;5.882;2023-04-06T09:50:11;13.45;45.74
68701;DHT22;55682;51.114;5.882;2023-04-06T09:52:41;13.79;44.90
68701;DHT22;55682;51.114;5.882;2023-04-06T09:55:09;13.90;44.42
68701;DHT22;55682;51.114;5.882;2023-04-06T09:57:55;13.90;44.93
68701;DHT22;55682;51.114;5.882;2023-04-06T10:00:23;14.13;44.90
68701;DHT22;55682;51.114;5.882;2023-04-06T10:02:58;14.19;44.38
68701;DHT22;55682;51.114;5.882;2023-04-06T10:07:56;14.36;45.01
68701;DHT22;55682;51.114;5.882;2023-04-06T10:10:22;14.62;45.25
68701;DHT22;55682;51.114;5.882;2023-04-06T10:12:48;14.93;44.18
68701;DHT22;55682;51.114;5.882;2023-04-06T10:15:16;15.00;43.38
68701;DHT22;55682;51.114;5.882;2023-04-06T10:17:41;15.09;44.00
68701;DHT22;55682;51.114;5.882;2023-04-06T10:25:53;15.02;42.97
68701;DHT22;55682;51.114;5.882;2023-04-06T10:28:23;14.99;43.58
68701;DHT22;55682;51.114;5.882;2023-04-06T10:30:56;15.04;43.54
68701;DHT22;55682;51.114;5.882;2023-04-06T10:33:23;15.12;43.58
68701;DHT22;55682;51.114;5.882;2023-04-06T10:35:48;15.07;43.46
68701;DHT22;55682;51.114;5.882;2023-04-06T10:38:14;15.00;43.83
68701;DHT22;55682;51.114;5.882;2023-04-06T10:40:42;15.11;43.76
68701;DHT22;55682;51.114;5.882;2023-04-06T10:43:18;15.04;43.78
68701;DHT22;55682;51.114;5.882;2023-04-06T10:45:44;15.10;44.03
68701;DHT22;55682;51.114;5.882;2023-04-06T10:48:18;15.03;44.19
68701;DHT22;55682;51.114;5.882;2023-04-06T10:50:46;15.02;44.19
68701;DHT22;55682;51.114;5.882;2023-04-06T10:53:21;14.84;45.00
68701;DHT22;55682;51.114;5.882;2023-04-06T10:55:52;14.74;45.99
68701;DHT22;55682;51.114;5.882;2023-04-06T10:58:20;14.55;45.63
68701;DHT22;55682;51.114;5.882;2023-04-06T11:00:47;14.36;46.23
68701;DHT22;55682;51.114;5.882;2023-04-06T11:03:13;14.08;47.31
68701;DHT22;55682;51.114;5.882;2023-04-06T11:05:47;13.85;48.28
68701;DHT22;55682;51.114;5.882;2023-04-06T11:08:32;13.85;48.15
68701;DHT22;55682;51.114;5.882;2023-04-06T11:16:15;13.41;50.08
68701;DHT22;55682;51.114;5.882;2023-04-06T11:18:51;13.41;51.40
68701;DHT22;55682;51.114;5.882;2023-04-06T11:21:18;13.37;51.72
68701;DHT22;55682;51.114;5.882;2023-04-06T11:23:43;13.30;52.98
68701;DHT22;55682;51.114;5.882;2023-04-06T11:26:13;13.26;53.66
68701;DHT22;55682;51.114;5.882;2023-04-06T11:28:43;13.14;53.49
68701;DHT22;55682;51.114;5.882;2023-04-06T11:31:11;13.04;54.52
68701;DHT22;55682;51.114;5.882;2023-04-06T11:33:37;13.11;54.97
68701;DHT22;55682;51.114;5.882;2023-04-06T11:36:05;13.09;55.35
68701;DHT22;55682;51.114;5.882;2023-04-06T11:38:31;12.95;55.84
68701;DHT22;55682;51.114;5.882;2023-04-06T11:40:57;12.86;56.66
68701;DHT22;55682;51.114;5.882;2023-04-06T11:43:27;12.60;58.40
68701;DHT22;55682;51.114;5.882;2023-04-06T11:46:00;12.42;59.16
68701;DHT22;55682;51.114;5.882;2023-04-06T11:48:26;12.36;59.54
68701;DHT22;55682;51.114;5.882;2023-04-06T11:50:59;12.25;60.45
68701;DHT22;55682;51.114;5.882;2023-04-06T11:53:29;12.03;61.50
68701;DHT22;55682;51.114;5.882;2023-04-06T11:55:56;11.92;62.59
68701;DHT22;55682;51.114;5.882;2023-04-06T11:58:21;11.85;63.23
68701;DHT22;55682;51.114;5.882;2023-04-06T12:00:47;11.82;63.88
68701;DHT22;55682;51.114;5.882;2023-04-06T12:03:14;11.69;64.52
68701;DHT22;55682;51.114;5.882;2023-04-06T12:05:39;11.44;64.82
68701;DHT22;55682;51.114;5.882;2023-04-06T12:08:05;11.19;66.33
68701;DHT22;55682;51.114;5.882;2023-04-06T12:10:31;11.08;65.64
68701;DHT22;55682;51.114;5.882;2023-04-06T12:12:56;10.96;67.39
68701;DHT22;55682;51.114;5.882;2023-04-06T12:15:22;10.93;66.33
68701;DHT22;55682;51.114;5.882;2023-04-06T12:17:48;10.90;66.56
68701;DHT22;55682;51.114;5.882;2023-04-06T12:20:15;11.00;67.24
68701;DHT22;55682;51.114;5.882;2023-04-06T12:22:40;11.11;66.47
68701;DHT22;55682;51.114;5.882;2023-04-06T12:25:06;11.10;66.84
68701;DHT22;55682;51.114;5.882;2023-04-06T12:27:32;10.92;66.54
68701;DHT22;55682;51.114;5.882;2023-04-06T12:29:58;11.03;66.65
68701;DHT22;55682;51.114;5.882;2023-04-06T12:32:24;11.12;67.19
68701;DHT22;55682;51.114;5.882;2023-04-06T12:34:52;11.30;66.66
68701;DHT22;55682;51.114;5.882;2023-04-06T12:37:18;11.59;66.18
68701;DHT22;55682;51.114;5.882;2023-04-06T12:39:44;11.49;66.68
68701;DHT22;55682;51.114;5.882;2023-04-06T12:42:12;11.33;67.31
68701;DHT22;55682;51.114;5.882;2023-04-06T12:44:39;11.08;68.16
68701;DHT22;55682;51.114;5.882;2023-04-06T12:47:04;10.97;67.99
68701;DHT22;55682;51.114;5.882;2023-04-06T12:49:30;11.00;68.94
68701;DHT22;55682;51.114;5.882;2023-04-06T12:51:57;10.93;70.40
68701;DHT22;55682;51.114;5.882;2023-04-06T12:54:22;10.85;70.22
68701;DHT22;55682;51.114;5.882;2023-04-06T12:56:48;10.58;72.48
68701;DHT22;55682;51.114;5.882;2023-04-06T12:59:13;10.54;70.81
68701;DHT22;55682;51.114;5.882;2023-04-06T13:01:39;10.35;73.22
68701;DHT22;55682;51.114;5.882;2023-04-06T13:04:05;10.41;72.35
68701;DHT22;55682;51.114;5.882;2023-04-06T13:06:31;10.39;73.52
68701;DHT22;55682;51.114;5.882;2023-04-06T13:08:57;10.31;73.49
68701;DHT22;55682;51.114;5.882;2023-04-06T13:11:22;10.22;73.38
68701;DHT22;55682;51.114;5.882;2023-04-06T13:13:49;10.28;74.00
68701;DHT22;55682;51.114;5.882;2023-04-06T13:16:15;10.29;74.80
68701;DHT22;55682;51.114;5.882;2023-04-06T13:18:40;10.22;74.90
68701;DHT22;55682;51.114;5.882;2023-04-06T13:21:07;10.31;73.20
68701;DHT22;55682;51.114;5.882;2023-04-06T13:23:33;10.16;73.97
68701;DHT22;55682;51.114;5.882;2023-04-06T13:26:05;10.24;73.45
68701;DHT22;55682;51.114;5.882;2023-04-06T13:28:32;10.34;73.99
68701;DHT22;55682;51.114;5.882;2023-04-06T13:30:59;10.41;73.49
68701;DHT22;55682;51.114;5.882;2023-04-06T13:33:29;10.50;73.29
68701;DHT22;55682;51.114;5.882;2023-04-06T13:35:55;10.49;73.69
68701;DHT22;55682;51.114;5.882;2023-04-06T13:38:21;10.56;74.29
68701;DHT22;55682;51.114;5.882;2023-04-06T13:40:49;10.55;74.21
68701;DHT22;55682;51.114;5.882;2023-04-06T13:43:15;10.48;74.72
68701;DHT22;55682;51.114;5.882;2023-04-06T13:45:41;10.39;74.38
68701;DHT22;55682;51.114;5.882;2023-04-06T13:48:06;10.26;76.02
68701;DHT22;55682;51.114;5.882;2023-04-06T13:50:32;10.21;75.35
68701;DHT22;55682;51.114;5.882;2023-04-06T13:52:58;10.06;75.86
68701;DHT22;55682;51.114;5.882;2023-04-06T13:55:24;10.04;76.35
68701;DHT22;55682;51.114;5.882;2023-04-06T13:57:50;10.16;75.83
68701;DHT22;55682;51.114;5.882;2023-04-06T14:00:16;10.19;76.33
68701;DHT22;55682;51.114;5.882;2023-04-06T14:02:42;10.31;76.16
68701;DHT22;55682;51.114;5.882;2023-04-06T14:05:08;10.34;75.59
68701;DHT22;55682;51.114;5.882;2023-04-06T14:07:34;10.45;75.70
68701;DHT22;55682;51.114;5.882;2023-04-06T14:10:00;10.43;76.15
68701;DHT22;55682;51.114;5.882;2023-04-06T14:12:25;10.27;78.19
68701;DHT22;55682;51.114;5.882;2023-04-06T14:14:52;10.27;76.00
68701;DHT22;55682;51.114;5.882;2023-04-06T14:17:18;10.18;78.89
68701;DHT22;55682;51.114;5.882;2023-04-06T14:19:43;10.20;76.80
68701;DHT22;55682;51.114;5.882;2023-04-06T14:22:09;10.26;76.69
68701;DHT22;55682;51.114;5.882;2023-04-06T14:24:36;10.30;76.98
68701;DHT22;55682;51.114;5.882;2023-04-06T14:27:02;10.26;77.01
68701;DHT22;55682;51.114;5.882;2023-04-06T14:29:28;10.29;77.26
68701;DHT22;55682;51.114;5.882;2023-04-06T14:31:53;10.24;77.60
68701;DHT22;55682;51.114;5.882;2023-04-06T14:34:26;10.16;77.40
68701;DHT22;55682;51.114;5.882;2023-04-06T14:36:51;10.20;77.76
68701;DHT22;55682;51.114;5.882;2023-04-06T14:39:17;10.22;77.79
68701;DHT22;55682;51.114;5.882;2023-04-06T14:41:43;10.25;77.42
68701;DHT22;55682;51.114;5.882;2023-04-06T14:44:08;10.23;77.44
68701;DHT22;55682;51.114;5.882;2023-04-06T14:46:37;10.28;77.56
68701;DHT22;55682;51.114;5.882;2023-04-06T14:49:03;10.26;77.38
68701;DHT22;55682;51.114;5.882;2023-04-06T14:51:29;10.40;76.88
68701;DHT22;55682;51.114;5.882;2023-04-06T14:53:55;10.25;77.45
68701;DHT22;55682;51.114;5.882;2023-04-06T14:56:22;10.25;77.21
68701;DHT22;55682;51.114;5.882;2023-04-06T14:58:49;10.37;76.52
68701;DHT22;55682;51.114;5.882;2023-04-06T15:01:17;10.39;76.37
68701;DHT22;55682;51.114;5.882;2023-04-06T15:03:43;10.40;76.14
68701;DHT22;55682;51.114;5.882;2023-04-06T15:06:13;10.50;75.85
68701;DHT22;55682;51.114;5.882;2023-04-06T15:08:43;10.49;75.75
68701;DHT22;55682;51.114;5.882;2023-04-06T15:11:09;10.48;75.56
68701;DHT22;55682;51.114;5.882;2023-04-06T15:13:35;10.56;75.31
68701;DHT22;55682;51.114;5.882;2023-04-06T15:16:01;10.46;75.22
68701;DHT22;55682;51.114;5.882;2023-04-06T15:18:27;10.52;75.02
68701;DHT22;55682;51.114;5.882;2023-04-06T15:20:53;10.60;74.50
68701;DHT22;55682;51.114;5.882;2023-04-06T15:23:18;10.52;76.34
68701;DHT22;55682;51.114;5.882;2023-04-06T15:25:44;10.40;75.52
68701;DHT22;55682;51.114;5.882;2023-04-06T15:28:09;10.43;75.66
68701;DHT22;55682;51.114;5.882;2023-04-06T15:30:36;10.35;75.83
68701;DHT22;55682;51.114;5.882;2023-04-06T15:33:04;10.34;76.02
68701;DHT22;55682;51.114;5.882;2023-04-06T15:35:30;10.31;76.16
68701;DHT22;55682;51.114;5.882;2023-04-06T15:37:56;10.41;75.37
68701;DHT22;55682;51.114;5.882;2023-04-06T15:40:23;10.43;75.44
68701;DHT22;55682;51.114;5.882;2023-04-06T15:42:49;10.58;75.55
68701;DHT22;55682;51.114;5.882;2023-04-06T15:45:15;10.51;75.58
68701;DHT22;55682;51.114;5.882;2023-04-06T15:47:43;10.36;77.17
68701;DHT22;55682;51.114;5.882;2023-04-06T15:50:10;10.26;78.54
68701;DHT22;55682;51.114;5.882;2023-04-06T15:52:37;10.03;82.41
68701;DHT22;55682;51.114;5.882;2023-04-06T15:55:05;9.91;80.26